In Rescue
 
Open Full Screen Window  High Contrast Mode
Wind Gusting 16 knots
09
April 19, 2021 10:01 PM EDT
Weather Information
Wind Direction
  270 °
Wind Speed
  09 kt (10 mph)
Wind Gust
  16 kt (18 mph)
Altimeter
29.86 in
Visibility
10 SM
Temperature
05° C
41° F
Dewpoint
-02° C
28° F
Humidity
61%
1hr Rain Fall
00.00 in.
24hr Rain Fall
00.04 in.
Sky Condition
Scattered @ 5,000 ft
VFR

METAR KD95 200201Z AUTO 27009G16KT 10SM SCT050 05/M02 A2986 RMK AO2 T00541020

FAA Disclaimer: The data displayed is for advisory purposes only and is not to be used for flight planning or operations.